Time;durP1;ratioP1;P1;durP2;ratioP2;P2;SDS_P1;SDS_P2;PMS_P1;PMS_P2;Temp;Humidity;BMP_temperature;BMP_pressure;BME280_temperature;BME280_humidity;BME280_pressure;Samples;Min_cycle;Max_cycle;Signal;HPM_P1;HPM_P2
2021/05/31 00:01:52;;;;;;;9.07;5.55;;;;;;;10.82;66.03;100423.53;5097909;28;20475;-46
2021/05/31 00:04:18;;;;;;;10.85;4.22;;;;;;;10.77;65.97;100421.88;5097939;28;20039;-46
2021/05/31 00:07:05;;;;;;;9.40;4.35;;;;;;;10.74;65.57;100414.06;5079681;28;20052;-46
2021/05/31 00:09:32;;;;;;;7.80;3.35;;;;;;;10.69;65.42;100413.28;5097296;28;20064;-46
2021/05/31 00:11:59;;;;;;;6.85;3.25;;;;;;;10.69;65.52;100410.66;5097458;28;20044;-46
2021/05/31 00:14:25;;;;;;;10.35;3.70;;;;;;;10.66;65.19;100410.72;5097646;28;20058;-46
2021/05/31 00:16:51;;;;;;;8.68;3.47;;;;;;;10.60;65.03;100405.56;5097368;28;20056;-46
2021/05/31 00:19:18;;;;;;;6.20;3.42;;;;;;;10.57;65.13;100404.75;5097084;28;20348;-46
2021/05/31 00:21:44;;;;;;;8.63;3.83;;;;;;;10.51;65.12;100408.31;5097021;28;20036;-46
2021/05/31 00:24:10;;;;;;;7.93;4.03;;;;;;;10.48;64.76;100404.00;5097810;28;20108;-46
2021/05/31 00:26:35;;;;;;;8.57;4.30;;;;;;;10.48;64.78;100405.75;5097223;28;20055;-46
2021/05/31 00:29:01;;;;;;;7.47;3.63;;;;;;;10.43;64.85;100403.22;5097405;28;20044;-46
2021/05/31 00:31:27;;;;;;;8.93;4.30;;;;;;;10.40;64.77;100410.22;5096485;28;20040;-46
2021/05/31 00:33:52;;;;;;;6.72;3.70;;;;;;;10.37;64.88;100405.91;5097046;28;20366;-46
2021/05/31 00:36:18;;;;;;;6.38;3.60;;;;;;;10.35;65.09;100404.19;5096856;28;20400;-46
2021/05/31 00:38:44;;;;;;;6.38;3.10;;;;;;;10.29;65.18;100407.75;5096200;28;20052;-46
2021/05/31 00:41:10;;;;;;;6.32;3.88;;;;;;;10.25;65.31;100398.19;5096828;28;20431;-46
2021/05/31 00:43:36;;;;;;;6.38;3.58;;;;;;;10.23;65.36;100405.19;5096891;28;20048;-46
2021/05/31 00:46:05;;;;;;;7.25;4.20;;;;;;;10.16;65.36;100399.19;5095681;28;20052;-46
2021/05/31 00:48:32;;;;;;;8.70;4.30;;;;;;;10.14;65.15;100398.38;5097192;28;20036;-46
2021/05/31 00:50:58;;;;;;;6.60;3.40;;;;;;;10.13;65.33;100404.47;5096534;28;20472;-46
2021/05/31 00:53:23;;;;;;;6.82;3.17;;;;;;;10.10;65.19;100401.88;5096773;28;20082;-46
2021/05/31 00:55:49;;;;;;;6.15;3.55;;;;;;;10.10;65.39;100395.78;5096389;28;20055;-46
2021/05/31 00:58:15;;;;;;;4.85;3.10;;;;;;;10.05;65.31;100398.47;5096690;28;20048;-46
2021/05/31 01:00:44;;;;;;;4.35;3.10;;;;;;;10.02;65.56;100395.91;5096317;28;20043;-46
2021/05/31 01:03:10;;;;;;;8.40;3.75;;;;;;;9.95;65.80;100391.66;5096323;28;20047;-46
2021/05/31 01:05:36;;;;;;;6.90;3.33;;;;;;;9.92;65.81;100403.00;5095706;28;20052;-46
2021/05/31 01:08:06;;;;;;;6.05;3.22;;;;;;;9.89;65.92;100395.19;5096529;28;20086;-46
2021/05/31 01:10:43;;;;;;;6.18;3.17;;;;;;;9.83;65.78;100403.97;5095475;28;20108;-46
2021/05/31 01:13:13;;;;;;;4.93;2.78;;;;;;;9.76;66.15;100391.00;5095589;28;20438;-46
2021/05/31 01:15:43;;;;;;;6.82;3.53;;;;;;;9.70;66.30;100396.31;5096451;28;20052;-46
2021/05/31 01:18:20;;;;;;;9.18;3.53;;;;;;;9.65;66.55;100398.09;5079485;28;20104;-46
2021/05/31 01:20:57;;;;;;;4.82;3.00;;;;;;;9.59;66.62;100407.78;5096033;28;20055;-46
2021/05/31 01:23:26;;;;;;;6.82;4.32;;;;;;;9.53;66.80;100397.38;5078939;28;20058;-46
2021/05/31 01:26:03;;;;;;;8.10;4.15;;;;;;;9.47;66.76;100397.44;5095195;28;20086;-46
2021/05/31 01:28:52;;;;;;;6.97;3.85;;;;;;;9.42;66.94;100390.53;5096373;28;20062;-46
2021/05/31 01:31:22;;;;;;;9.27;3.83;;;;;;;9.39;67.04;100395.78;5096810;28;20048;-46
2021/05/31 01:33:48;;;;;;;5.63;3.22;;;;;;;9.35;66.94;100389.72;5095601;28;20125;-46
2021/05/31 01:36:13;;;;;;;8.25;3.65;;;;;;;9.31;67.12;100388.03;5096048;28;20439;-46
2021/05/31 01:38:39;;;;;;;6.57;3.17;;;;;;;9.28;67.34;100385.47;5095420;28;20085;-46
2021/05/31 01:41:06;;;;;;;7.15;2.72;;;;;;;9.24;67.32;100387.25;5095261;28;20056;-46
2021/05/31 01:43:31;;;;;;;12.73;2.92;;;;;;;9.18;67.17;100371.63;5094999;28;20461;-46
2021/05/31 01:46:00;;;;;;;5.65;2.95;;;;;;;9.14;67.10;100380.38;5078568;28;20037;-46
2021/05/31 01:48:25;;;;;;;4.55;2.92;;;;;;;9.13;67.50;100384.75;5078862;28;20056;-46
2021/05/31 01:50:51;;;;;;;8.50;2.85;;;;;;;9.08;67.67;100383.91;5095806;28;20438;-46
2021/05/31 01:53:18;;;;;;;5.90;2.88;;;;;;;9.08;67.23;100383.06;5078288;28;20119;-46
2021/05/31 01:55:43;;;;;;;5.30;2.45;;;;;;;9.03;67.55;100383.06;5095198;28;20131;-46
2021/05/31 01:58:09;;;;;;;6.65;3.03;;;;;;;9.01;67.69;100378.78;5095187;28;20364;-46
2021/05/31 02:00:35;;;;;;;4.45;3.20;;;;;;;8.97;67.74;100374.44;5095641;28;20430;-46
2021/05/31 02:03:02;;;;;;;4.65;2.85;;;;;;;8.93;67.69;100381.44;5095993;28;20052;-46
2021/05/31 02:05:27;;;;;;;7.82;3.38;;;;;;;8.90;68.00;100378.84;5095980;28;20048;-46
2021/05/31 02:07:55;;;;;;;6.90;2.80;;;;;;;8.86;68.44;100378.00;5094852;28;20342;-46
2021/05/31 02:10:20;;;;;;;6.70;3.05;;;;;;;8.84;68.31;100378.94;5095929;28;20044;-46
2021/05/31 02:12:55;;;;;;;5.75;3.00;;;;;;;8.83;68.30;100382.41;5097157;28;20059;-46
2021/05/31 02:15:24;;;;;;;5.03;2.67;;;;;;;8.79;68.49;100378.09;5099768;28;20062;-46
2021/05/31 02:18:05;;;;;;;11.20;2.85;;;;;;;8.75;68.76;100377.25;5098829;28;20055;-46
2021/05/31 02:20:31;;;;;;;5.53;2.78;;;;;;;8.72;69.03;100379.03;5099065;28;20044;-46
2021/05/31 02:23:00;;;;;;;5.20;2.55;;;;;;;8.71;69.08;100378.16;5099626;28;20516;-46
2021/05/31 02:25:26;;;;;;;4.70;2.85;;;;;;;8.69;68.81;100377.31;5099215;28;20052;-46
2021/05/31 02:27:52;;;;;;;5.15;3.05;;;;;;;8.68;68.83;100377.31;5099206;28;20490;-46
2021/05/31 02:30:18;;;;;;;4.95;2.70;;;;;;;8.65;69.12;100378.22;5098510;28;20047;-46
2021/05/31 02:33:01;;;;;;;5.88;3.10;;;;;;;8.61;69.17;100371.25;5099103;28;20058;-46
2021/05/31 02:35:29;;;;;;;6.57;3.15;;;;;;;8.58;69.31;100368.69;5098509;28;20055;-46
2021/05/31 02:37:55;;;;;;;7.32;3.00;;;;;;;8.54;69.46;100373.06;5098952;28;20063;-46
2021/05/31 02:40:21;;;;;;;6.13;3.00;;;;;;;8.53;69.67;100375.69;5065407;28;20334;-46
2021/05/31 02:42:48;;;;;;;8.73;2.70;;;;;;;8.51;69.51;100375.69;5098351;28;20048;-46
2021/05/31 02:45:15;;;;;;;7.38;2.78;;;;;;;8.49;69.71;100374.84;5099179;28;20040;-46
2021/05/31 02:47:40;;;;;;;8.50;3.58;;;;;;;8.49;69.60;100371.38;5099105;28;20043;-46
2021/05/31 02:50:06;;;;;;;6.68;3.08;;;;;;;8.45;69.79;100370.53;5099096;28;20079;-46
2021/05/31 02:52:40;;;;;;;7.72;3.63;;;;;;;8.42;70.17;100368.81;5098761;28;20111;-46
2021/05/31 02:55:13;;;;;;;5.32;3.40;;;;;;;8.39;70.14;100373.19;5099328;28;20105;-46
2021/05/31 02:57:39;;;;;;;8.45;3.38;;;;;;;8.34;70.22;100374.94;5098976;28;20055;-46
2021/05/31 03:00:06;;;;;;;6.00;2.85;;;;;;;8.34;70.45;100380.16;5098841;28;20075;-46
2021/05/31 03:02:31;;;;;;;5.93;3.30;;;;;;;8.30;70.50;100384.53;5098526;28;20357;-46
2021/05/31 03:04:57;;;;;;;7.38;3.03;;;;;;;8.29;70.76;100374.09;5098795;28;20139;-46
2021/05/31 03:07:23;;;;;;;5.32;3.05;;;;;;;8.28;70.92;100381.03;5098765;28;20426;-46
2021/05/31 03:09:49;;;;;;;6.55;3.60;;;;;;;8.27;70.73;100370.63;5098706;28;20361;-46
2021/05/31 03:12:14;;;;;;;8.10;4.45;;;;;;;8.26;70.92;100376.75;5098426;28;20040;-46
2021/05/31 03:14:40;;;;;;;6.97;4.35;;;;;;;8.26;71.25;100377.59;5098042;28;20044;-46
2021/05/31 03:17:06;;;;;;;6.07;3.70;;;;;;;8.26;71.26;100382.81;5098483;28;20043;-46
2021/05/31 03:19:32;;;;;;;5.90;3.22;;;;;;;8.27;71.44;100381.06;5097642;28;20043;-46
2021/05/31 03:21:57;;;;;;;5.07;3.00;;;;;;;8.28;71.37;100382.78;5098393;28;20055;-46
2021/05/31 03:24:23;;;;;;;5.72;3.10;;;;;;;8.29;71.26;100381.94;5097798;28;20331;-46
2021/05/31 03:26:49;;;;;;;4.85;2.80;;;;;;;8.24;71.60;100368.03;5098124;28;20066;-46
2021/05/31 03:29:14;;;;;;;6.13;3.70;;;;;;;8.32;71.99;100377.56;5098019;28;20044;-46
2021/05/31 03:31:40;;;;;;;6.15;2.90;;;;;;;8.33;71.94;100378.41;5098274;28;20058;-46
2021/05/31 03:34:06;;;;;;;4.15;2.55;;;;;;;8.36;71.86;100378.41;5097973;28;20434;-46
2021/05/31 03:36:31;;;;;;;8.05;2.95;;;;;;;8.39;72.32;100373.19;5097810;28;20056;-46
2021/05/31 03:38:57;;;;;;;6.10;3.75;;;;;;;8.41;72.10;100374.91;5097874;28;20052;-46
2021/05/31 03:41:23;;;;;;;7.20;3.33;;;;;;;8.46;71.83;100376.63;5098038;28;20043;-46
2021/05/31 03:43:49;;;;;;;7.88;3.45;;;;;;;8.47;72.35;100373.13;5097819;28;20054;-46
2021/05/31 03:46:14;;;;;;;7.95;3.38;;;;;;;8.51;72.19;100372.22;5098023;28;20063;-46
2021/05/31 03:48:40;;;;;;;6.38;3.50;;;;;;;8.57;72.17;100377.41;5097994;28;20040;-46
2021/05/31 03:51:10;;;;;;;12.02;3.55;;;;;;;8.61;72.28;100377.38;5097855;28;20323;-46
2021/05/31 03:53:36;;;;;;;5.07;3.13;;;;;;;8.69;72.51;100377.31;5097855;28;20052;-46
2021/05/31 03:56:02;;;;;;;9.18;3.17;;;;;;;8.83;72.67;100371.94;5097811;28;20059;-46
2021/05/31 03:58:28;;;;;;;6.75;3.53;;;;;;;9.02;72.96;100370.03;5096899;28;20048;-46
2021/05/31 04:00:53;;;;;;;5.57;3.00;;;;;;;9.33;73.21;100370.59;5097677;28;20062;-46
2021/05/31 04:03:20;;;;;;;5.18;2.78;;;;;;;9.89;73.67;100369.03;5097971;28;20123;-46
2021/05/31 04:05:58;;;;;;;7.85;3.83;;;;;;;10.64;72.94;100364.47;5079702;28;20051;-46
2021/05/31 04:13:53;;;;;;;5.22;2.95;;;;;;;13.16;66.98;100347.63;5065504;28;20056;-47
2021/05/31 04:16:18;;;;;;;7.97;3.33;;;;;;;13.87;64.32;100349.13;5096544;28;20052;-46
2021/05/31 04:18:44;;;;;;;5.00;3.05;;;;;;;14.62;62.66;100353.84;5097869;28;20460;-46
2021/05/31 04:21:10;;;;;;;4.20;2.33;;;;;;;15.22;59.81;100357.09;5095820;28;20130;-47
2021/05/31 04:23:36;;;;;;;5.22;2.72;;;;;;;15.78;58.40;100348.88;5097296;28;20065;-47
2021/05/31 04:26:01;;;;;;;6.88;3.13;;;;;;;16.29;55.76;100353.94;5097000;28;20036;-46
2021/05/31 04:28:27;;;;;;;6.10;2.85;;;;;;;16.90;55.28;100360.28;5097515;28;20062;-46
2021/05/31 04:30:53;;;;;;;8.50;3.15;;;;;;;17.34;52.02;100357.50;5096884;28;20051;-46
2021/05/31 04:33:18;;;;;;;5.60;3.63;;;;;;;17.60;49.64;100361.63;5097145;28;20052;-46
2021/05/31 04:35:44;;;;;;;10.30;3.95;;;;;;;17.94;50.71;100358.34;5096498;28;20354;-46
2021/05/31 04:38:10;;;;;;;6.72;3.53;;;;;;;18.20;49.05;100359.75;5095691;28;20449;-46
2021/05/31 04:40:36;;;;;;;5.95;3.55;;;;;;;18.31;48.68;100352.13;5096928;28;20128;-46
2021/05/31 04:43:02;;;;;;;6.38;3.50;;;;;;;18.77;48.03;100360.50;5097192;28;20057;-46
2021/05/31 04:45:28;;;;;;;6.55;3.05;;;;;;;19.08;46.61;100351.84;5096926;28;20048;-47
2021/05/31 04:47:53;;;;;;;9.50;3.50;;;;;;;19.30;46.37;100359.56;5096603;28;20044;-47
2021/05/31 04:50:19;;;;;;;6.55;3.70;;;;;;;19.59;45.61;100357.97;5097084;28;20343;-46
2021/05/31 04:52:45;;;;;;;9.15;4.72;;;;;;;19.86;44.63;100349.50;5096561;28;20097;-47
2021/05/31 04:55:15;;;;;;;5.93;3.47;;;;;;;20.07;44.37;100334.16;5097068;28;20040;-47
2021/05/31 04:57:41;;;;;;;6.20;3.30;;;;;;;20.39;43.53;100342.97;5095561;28;20047;-47
2021/05/31 05:00:07;;;;;;;5.03;2.92;;;;;;;20.79;43.36;100348.66;5096281;28;20058;-47
2021/05/31 05:02:33;;;;;;;3.28;2.53;;;;;;;20.83;43.41;100349.31;5096651;28;20048;-47
2021/05/31 05:04:59;;;;;;;5.00;2.50;;;;;;;21.14;42.07;100348.38;5096593;28;20052;-47
2021/05/31 05:07:24;;;;;;;3.00;2.30;;;;;;;21.28;42.38;100348.38;5095503;28;20112;-47
2021/05/31 05:09:50;;;;;;;5.53;2.05;;;;;;;21.42;42.18;100343.09;5095644;28;20434;-47
2021/05/31 05:12:16;;;;;;;4.43;2.80;;;;;;;21.65;40.65;100348.81;5096201;28;20082;-47
2021/05/31 05:14:43;;;;;;;15.55;2.47;;;;;;;21.67;40.48;100349.56;5096457;28;20108;-47
2021/05/31 05:17:08;;;;;;;5.25;2.58;;;;;;;21.67;40.73;100346.91;5096133;28;20052;-47
2021/05/31 05:19:34;;;;;;;3.85;2.58;;;;;;;22.16;40.28;100347.34;5096098;28;20055;-47
2021/05/31 05:22:00;;;;;;;5.45;2.65;;;;;;;22.45;39.23;100341.91;5096332;28;20051;-47
2021/05/31 05:24:27;;;;;;;7.13;2.85;;;;;;;22.59;39.26;100333.84;5096433;28;20092;-47
2021/05/31 05:26:53;;;;;;;5.60;2.70;;;;;;;22.90;39.45;100346.94;5096347;28;20101;-47
2021/05/31 05:29:19;;;;;;;3.83;2.58;;;;;;;22.93;38.40;100336.94;5095188;28;20052;-47
2021/05/31 05:31:45;;;;;;;3.67;2.25;;;;;;;23.19;37.88;100332.47;5096343;28;20071;-47
2021/05/31 05:34:12;;;;;;;3.97;2.35;;;;;;;23.49;37.28;100331.28;5062081;28;20063;-47
2021/05/31 05:36:56;;;;;;;3.00;2.00;;;;;;;23.41;37.23;100345.19;5095034;28;20442;-47
2021/05/31 05:42:14;;;;;;;5.00;1.73;;;;;;;23.95;36.66;100333.38;5096229;28;20047;-47
2021/05/31 05:45:13;;;;;;;4.32;2.20;;;;;;;24.28;36.52;100332.75;5095935;28;20465;-47
2021/05/31 05:47:47;;;;;;;3.72;2.10;;;;;;;24.29;35.73;100333.59;5096865;28;20130;-47
2021/05/31 05:50:17;;;;;;;5.90;2.42;;;;;;;24.54;35.06;100336.19;5100273;28;20112;-47
2021/05/31 05:52:43;;;;;;;7.88;3.83;;;;;;;24.73;35.26;100343.66;5099928;28;20360;-48
2021/05/31 05:55:09;;;;;;;6.30;3.67;;;;;;;24.70;35.04;100339.41;5100141;28;20056;-48
2021/05/31 05:57:35;;;;;;;4.25;2.45;;;;;;;24.99;34.93;100341.66;5099802;28;20434;-47
2021/05/31 06:00:03;;;;;;;4.18;2.08;;;;;;;25.15;34.65;100336.91;5100001;28;20054;-47
2021/05/31 06:02:39;;;;;;;5.38;2.45;;;;;;;25.38;33.75;100345.81;5100206;28;20450;-47
2021/05/31 06:05:05;;;;;;;4.75;2.33;;;;;;;25.23;34.06;100333.59;5099688;28;20174;-47
2021/05/31 06:07:30;;;;;;;6.20;2.58;;;;;;;25.51;33.58;100328.75;5099597;28;20365;-48
2021/05/31 06:09:56;;;;;;;5.43;2.50;;;;;;;25.26;34.42;100338.72;5099875;28;20116;-47
2021/05/31 06:12:22;;;;;;;5.03;2.75;;;;;;;25.46;34.32;100341.69;5099680;28;20048;-47
2021/05/31 06:14:48;;;;;;;7.65;2.85;;;;;;;25.26;34.33;100345.91;5098587;28;20047;-47
2021/05/31 06:17:14;;;;;;;5.00;2.67;;;;;;;25.41;34.16;100348.25;5099711;28;20107;-47
2021/05/31 06:19:39;;;;;;;7.38;3.20;;;;;;;25.21;33.56;100343.59;5099678;28;20060;-48
2021/05/31 06:22:06;;;;;;;3.80;2.65;;;;;;;24.86;34.03;100338.22;5099592;28;20048;-47
2021/05/31 06:24:32;;;;;;;4.25;2.45;;;;;;;24.88;34.60;100347.00;5099275;28;20082;-47
2021/05/31 06:26:58;;;;;;;5.20;3.00;;;;;;;24.88;35.08;100342.50;5065279;28;20048;-47
2021/05/31 06:29:24;;;;;;;4.82;2.70;;;;;;;24.98;35.17;100349.84;5099191;28;20361;-47
2021/05/31 06:31:50;;;;;;;3.95;2.28;;;;;;;25.29;34.89;100351.91;5098593;28;20381;-47
2021/05/31 06:34:15;;;;;;;4.22;2.40;;;;;;;25.70;34.50;100345.06;5065070;28;20090;-47
2021/05/31 06:36:41;;;;;;;4.22;2.50;;;;;;;26.02;34.54;100342.50;5098020;28;20056;-47
2021/05/31 06:39:08;;;;;;;5.78;2.47;;;;;;;25.99;33.27;100344.59;5099344;28;20052;-47
2021/05/31 06:41:34;;;;;;;4.15;2.45;;;;;;;25.82;32.53;100341.44;5099049;28;20105;-47
2021/05/31 06:44:00;;;;;;;4.88;2.50;;;;;;;25.74;33.39;100343.00;5099211;28;20048;-47
2021/05/31 06:46:27;;;;;;;5.78;2.85;;;;;;;25.36;32.94;100344.22;5098925;28;20475;-47
2021/05/31 06:48:53;;;;;;;7.10;2.85;;;;;;;25.25;33.37;100336.16;5098830;28;20130;-47
2021/05/31 06:51:18;;;;;;;5.88;3.17;;;;;;;25.24;33.69;100342.50;5099077;28;20048;-47
2021/05/31 06:53:44;;;;;;;5.40;2.72;;;;;;;25.40;33.89;100325.09;5098117;28;20464;-47
2021/05/31 06:56:11;;;;;;;6.28;3.13;;;;;;;25.53;33.47;100330.34;5097490;28;20048;-47
2021/05/31 06:58:37;;;;;;;4.03;2.40;;;;;;;25.54;33.11;100334.72;5097922;28;20052;-47
2021/05/31 07:01:03;;;;;;;4.50;2.15;;;;;;;25.62;32.92;100331.44;5098223;28;20048;-47
2021/05/31 07:03:29;;;;;;;6.90;2.88;;;;;;;25.63;33.46;100339.34;5098840;28;20047;-47
2021/05/31 07:05:54;;;;;;;3.88;2.80;;;;;;;25.52;33.34;100339.38;5098824;28;20051;-47
2021/05/31 07:08:25;;;;;;;5.82;3.15;;;;;;;25.58;33.32;100341.56;5064352;28;20040;-47
2021/05/31 07:10:52;;;;;;;6.10;2.60;;;;;;;25.72;33.40;100331.56;5098521;28;20331;-48
2021/05/31 07:13:20;;;;;;;3.78;2.83;;;;;;;25.77;32.63;100319.50;5098577;28;20071;-48
2021/05/31 07:15:50;;;;;;;4.82;2.85;;;;;;;25.86;32.02;100317.91;5098649;28;20354;-48
2021/05/31 07:18:16;;;;;;;4.55;2.40;;;;;;;25.83;32.74;100316.31;5098553;28;20051;-48
2021/05/31 07:20:42;;;;;;;3.90;1.90;;;;;;;26.27;32.36;100314.53;5097278;28;20331;-47
2021/05/31 07:23:10;;;;;;;3.30;2.25;;;;;;;26.59;31.57;100329.81;5098507;28;20048;-48
2021/05/31 07:25:36;;;;;;;4.72;2.53;;;;;;;26.69;31.41;100324.53;5098425;28;20048;-48
2021/05/31 07:28:02;;;;;;;2.75;2.10;;;;;;;26.80;31.29;100321.78;5098072;28;20055;-47
2021/05/31 07:30:28;;;;;;;3.97;2.65;;;;;;;27.11;31.38;100325.41;5098387;28;20052;-48
2021/05/31 07:32:53;;;;;;;5.85;2.08;;;;;;;27.26;30.95;100329.44;5098077;28;20070;-48
2021/05/31 07:35:19;;;;;;;4.00;1.65;;;;;;;27.70;30.04;100323.88;5097374;28;20132;-48
2021/05/31 07:37:45;;;;;;;5.97;2.17;;;;;;;27.54;29.97;100329.75;5096993;28;20044;-48
2021/05/31 07:40:12;;;;;;;3.60;1.30;;;;;;;27.68;29.48;100326.69;5098061;28;20048;-48
2021/05/31 07:42:38;;;;;;;3.58;1.83;;;;;;;27.54;29.43;100321.69;5097794;28;20055;-48
2021/05/31 07:45:04;;;;;;;2.80;1.13;;;;;;;27.44;30.00;100331.53;5098070;28;20052;-48
2021/05/31 07:47:30;;;;;;;4.63;2.55;;;;;;;27.35;29.35;100319.75;5080416;28;20047;-48
2021/05/31 07:49:55;;;;;;;6.50;3.33;;;;;;;27.12;29.79;100321.72;5097962;28;20376;-48
2021/05/31 07:52:24;;;;;;;4.10;2.28;;;;;;;26.78;30.22;100316.56;5097677;28;20122;-48
2021/05/31 07:54:53;;;;;;;5.65;2.33;;;;;;;26.95;30.06;100320.47;5097510;28;20052;-48
2021/05/31 07:57:21;;;;;;;3.92;2.10;;;;;;;26.77;28.86;100319.34;5098047;28;20048;-48
2021/05/31 07:59:47;;;;;;;3.25;1.40;;;;;;;26.51;28.29;100318.88;5080372;28;20055;-48
2021/05/31 08:02:12;;;;;;;3.38;1.52;;;;;;;26.57;29.03;100321.88;5097012;28;20055;-48
2021/05/31 08:04:38;;;;;;;3.15;1.67;;;;;;;26.62;29.22;100309.88;5097664;28;20044;-48
2021/05/31 08:07:04;;;;;;;2.78;1.40;;;;;;;26.63;28.22;100317.84;5097844;28;20052;-48
2021/05/31 08:09:30;;;;;;;4.18;1.65;;;;;;;26.54;27.93;100314.09;5097256;28;20048;-48
2021/05/31 08:11:56;;;;;;;4.35;1.40;;;;;;;26.33;28.55;100316.72;5096288;28;20097;-54
2021/05/31 08:14:23;;;;;;;2.30;1.73;;;;;;;26.38;28.51;100316.31;5097230;28;20048;-53
2021/05/31 08:16:49;;;;;;;8.02;2.20;;;;;;;26.16;28.63;100321.75;5097368;28;20048;-54
2021/05/31 08:19:16;;;;;;;5.22;2.25;;;;;;;26.20;28.95;100320.53;5096563;28;20441;-53
2021/05/31 08:21:43;;;;;;;6.20;2.53;;;;;;;25.94;28.81;100323.53;5097505;28;20036;-54
2021/05/31 08:24:08;;;;;;;4.68;2.17;;;;;;;25.51;29.11;100326.94;5097081;28;20145;-54
2021/05/31 08:26:36;;;;;;;6.32;2.40;;;;;;;25.28;29.76;100327.88;5097032;28;20119;-53
2021/05/31 08:29:02;;;;;;;3.88;2.20;;;;;;;24.97;30.49;100327.56;5096923;28;20059;-53
2021/05/31 08:31:28;;;;;;;3.15;2.20;;;;;;;24.94;30.99;100328.63;5097529;28;20044;-54
2021/05/31 08:33:54;;;;;;;6.07;2.70;;;;;;;24.94;30.65;100311.72;5097112;28;20056;-54
2021/05/31 08:36:21;;;;;;;7.00;3.40;;;;;;;24.84;31.67;100324.13;5096864;28;20071;-54
2021/05/31 08:38:46;;;;;;;6.80;2.53;;;;;;;24.68;31.75;100313.72;5096971;28;20143;-54
2021/05/31 08:41:12;;;;;;;5.30;3.13;;;;;;;24.83;32.24;100315.22;5096926;28;20040;-54
2021/05/31 08:43:38;;;;;;;2.65;1.80;;;;;;;24.61;31.03;100299.94;5079562;28;20361;-54
2021/05/31 08:46:03;;;;;;;4.32;1.88;;;;;;;24.70;31.54;100307.28;5096903;28;20058;-54
2021/05/31 08:48:29;;;;;;;3.13;1.38;;;;;;;24.73;31.03;100311.53;5096583;28;20052;-54
2021/05/31 08:50:55;;;;;;;4.20;1.70;;;;;;;24.88;30.12;100312.19;5095873;28;20052;-54
2021/05/31 08:53:20;;;;;;;2.60;1.27;;;;;;;24.72;29.44;100308.00;5096817;28;20105;-54
2021/05/31 08:55:46;;;;;;;2.78;1.27;;;;;;;24.64;28.64;100299.72;5096442;28;20052;-54
2021/05/31 08:58:13;;;;;;;1.83;1.15;;;;;;;24.53;29.01;100304.16;5096381;28;20051;-54
2021/05/31 09:00:38;;;;;;;1.85;1.20;;;;;;;24.63;30.03;100311.38;5095629;28;20048;-54
2021/05/31 09:03:06;;;;;;;3.42;1.30;;;;;;;24.74;28.56;100307.03;5097438;28;20048;-54
2021/05/31 09:05:33;;;;;;;1.80;1.30;;;;;;;24.62;29.41;100306.16;5095525;28;20040;-54
2021/05/31 09:08:06;;;;;;;1.95;1.20;;;;;;;24.45;30.50;100312.78;5096531;28;20052;-54
2021/05/31 09:10:39;;;;;;;4.53;1.45;;;;;;;24.51;29.40;100301.59;5096633;28;20051;-54
2021/05/31 09:13:05;;;;;;;2.08;1.52;;;;;;;24.56;30.48;100304.78;5096599;28;20361;-54
2021/05/31 09:15:31;;;;;;;3.75;1.35;;;;;;;24.56;29.42;100307.44;5096204;28;20040;-54
2021/05/31 09:17:57;;;;;;;2.58;1.40;;;;;;;24.30;29.74;100309.38;5096206;28;20044;-54
2021/05/31 09:20:24;;;;;;;2.90;1.00;;;;;;;24.10;29.72;100300.16;5096033;28;20044;-54
2021/05/31 09:22:53;;;;;;;3.70;1.08;;;;;;;23.93;30.23;100308.56;5095551;28;20068;-54
2021/05/31 09:25:37;;;;;;;1.77;0.63;;;;;;;23.84;30.94;100306.56;5096251;28;20161;-54
2021/05/31 09:28:05;;;;;;;4.88;1.27;;;;;;;24.14;30.79;100304.31;5096353;28;20047;-54
2021/05/31 09:30:36;;;;;;;2.58;1.00;;;;;;;24.16;29.94;100307.72;5095683;28;20048;-54
2021/05/31 09:33:02;;;;;;;2.20;0.90;;;;;;;24.07;28.84;100296.84;5096337;28;20113;-54
2021/05/31 09:35:28;;;;;;;7.13;1.40;;;;;;;23.95;29.36;100306.63;5096268;28;20400;-54
2021/05/31 09:38:00;;;;;;;3.20;0.82;;;;;;;23.83;29.58;100291.50;5096103;28;20045;-54
2021/05/31 09:40:26;;;;;;;1.00;0.75;;;;;;;23.78;30.38;100287.31;5096299;28;20040;-54
2021/05/31 09:42:54;;;;;;;2.50;0.70;;;;;;;23.90;30.46;100300.75;5096202;28;20327;-54
2021/05/31 09:45:20;;;;;;;1.50;1.17;;;;;;;23.92;29.35;100296.13;5095963;28;20051;-54
2021/05/31 09:47:46;;;;;;;10.65;1.45;;;;;;;23.79;28.82;100288.19;5096434;28;20075;-54
2021/05/31 09:50:19;;;;;;;2.50;1.20;;;;;;;23.91;29.51;100289.09;5096183;28;20044;-54
2021/05/31 09:52:45;;;;;;;4.88;1.08;;;;;;;24.05;30.46;100293.41;5095399;28;20036;-54
2021/05/31 09:55:11;;;;;;;4.82;1.08;;;;;;;23.74;30.05;100291.19;5094938;28;20109;-54
2021/05/31 09:57:38;;;;;;;4.00;1.20;;;;;;;23.66;30.05;100287.31;5078419;28;20461;-54
2021/05/31 10:00:12;;;;;;;5.43;0.90;;;;;;;23.64;30.17;100287.44;5095800;28;20059;-54
2021/05/31 10:08:16;;;;;;;2.25;0.90;;;;;;;24.01;30.33;100282.09;5096002;28;20051;-54
2021/05/31 10:10:43;;;;;;;2.70;1.05;;;;;;;24.10;29.28;100272.53;5095683;28;20079;-54
2021/05/31 10:13:09;;;;;;;2.80;0.80;;;;;;;23.96;29.35;100274.41;5095764;28;20060;-52
2021/05/31 10:15:39;;;;;;;4.68;1.30;;;;;;;24.00;28.48;100273.22;5095668;28;20040;-54
2021/05/31 10:18:05;;;;;;;1.45;0.70;;;;;;;23.78;28.49;100279.28;5095729;28;20449;-54
2021/05/31 10:20:31;;;;;;;3.50;0.85;;;;;;;23.78;29.15;100278.44;5094710;28;20040;-54
2021/05/31 10:22:57;;;;;;;3.13;0.68;;;;;;;23.81;28.38;100277.38;5095774;28;20047;-53
2021/05/31 10:25:23;;;;;;;4.47;1.63;;;;;;;23.72;28.98;100276.19;5095516;28;20055;-53
2021/05/31 10:27:55;;;;;;;2.25;0.73;;;;;;;23.89;27.59;100269.66;5095606;28;20090;-54
2021/05/31 10:30:21;;;;;;;1.98;0.70;;;;;;;23.65;28.07;100275.75;5094070;28;20051;-54
2021/05/31 10:32:48;;;;;;;4.82;0.95;;;;;;;23.27;28.53;100273.16;5094103;28;20117;-53
2021/05/31 10:35:22;;;;;;;1.80;0.70;;;;;;;23.09;29.29;100267.28;5094762;28;20354;-54
2021/05/31 10:37:57;;;;;;;4.43;1.02;;;;;;;23.02;28.46;100279.38;5097513;28;20101;-54
2021/05/31 10:40:36;;;;;;;5.90;0.70;;;;;;;23.12;27.69;100269.75;5096919;28;20048;-54
2021/05/31 10:43:06;;;;;;;2.67;0.73;;;;;;;23.19;27.43;100275.50;5097468;28;20399;-53
2021/05/31 10:45:32;;;;;;;1.95;0.22;;;;;;;23.25;27.57;100269.75;5099190;28;20039;-53
2021/05/31 10:48:01;;;;;;;3.50;0.70;;;;;;;22.91;27.21;100261.41;5099022;28;20081;-53
2021/05/31 10:50:31;;;;;;;1.00;0.50;;;;;;;23.21;28.13;100261.09;5081385;28;20378;-54
2021/05/31 10:52:57;;;;;;;1.70;0.40;;;;;;;23.26;28.94;100266.09;5099071;28;20350;-54
2021/05/31 10:55:25;;;;;;;1.15;0.70;;;;;;;23.55;27.48;100254.19;5099027;28;20044;-54
2021/05/31 10:57:56;;;;;;;2.78;0.55;;;;;;;23.83;27.30;100252.22;5098756;28;20043;-53
2021/05/31 11:00:29;;;;;;;2.88;0.80;;;;;;;23.58;27.04;100250.44;5098068;28;20052;-54
2021/05/31 11:03:09;;;;;;;14.90;2.13;;;;;;;23.13;27.67;100266.09;5098736;28;20105;-54
2021/05/31 11:05:36;;;;;;;5.00;0.43;;;;;;;23.18;28.97;100257.78;5098025;28;20048;-54
2021/05/31 11:08:02;;;;;;;6.95;1.40;;;;;;;23.48;28.30;100252.91;5098814;28;20079;-53
2021/05/31 11:10:32;;;;;;;2.63;0.52;;;;;;;23.75;27.42;100244.75;5099268;28;20063;-54
2021/05/31 11:13:09;;;;;;;2.00;0.40;;;;;;;23.90;28.04;100255.28;5098848;28;20032;-53
2021/05/31 11:15:35;;;;;;;1.33;0.77;;;;;;;23.85;27.13;100252.94;5098394;28;20059;-53
2021/05/31 11:18:01;;;;;;;2.42;0.50;;;;;;;24.00;27.97;100254.50;5097425;28;20079;-54
2021/05/31 11:20:27;;;;;;;2.15;0.65;;;;;;;24.01;26.88;100250.00;5097640;28;20113;-54
2021/05/31 11:22:57;;;;;;;2.85;0.93;;;;;;;23.87;28.01;100247.50;5080865;28;20335;-54
2021/05/31 11:25:23;;;;;;;1.50;0.40;;;;;;;23.75;28.01;100247.41;5098505;28;20059;-53
2021/05/31 11:28:03;;;;;;;1.13;0.70;;;;;;;23.69;27.45;100252.34;5098384;28;20051;-54
2021/05/31 11:30:33;;;;;;;0.82;0.43;;;;;;;23.55;27.92;100247.97;5098133;28;20043;-54
2021/05/31 11:33:01;;;;;;;5.05;0.82;;;;;;;23.37;28.12;100251.97;5098377;28;20202;-54
2021/05/31 11:35:27;;;;;;;2.20;0.77;;;;;;;23.18;28.10;100242.59;5098295;28;20062;-54
2021/05/31 11:37:54;;;;;;;1.55;0.85;;;;;;;23.26;28.03;100248.25;5098047;28;20063;-53
2021/05/31 11:40:28;;;;;;;3.10;0.60;;;;;;;23.41;27.57;100238.28;5097757;28;20047;-53
2021/05/31 11:43:00;;;;;;;3.25;0.47;;;;;;;23.33;27.51;100238.84;5098506;28;20308;-54